Time;durP1;ratioP1;P1;durP2;ratioP2;P2;SDS_P1;SDS_P2;PMS_P1;PMS_P2;Temp;Humidity;BMP_temperature;BMP_pressure;BME280_temperature;BME280_humidity;BME280_pressure;Samples;Min_cycle;Max_cycle;Signal;HPM_P1;HPM_P2
2022/12/24 00:02:20;;;;;;;1.13;1.02;;;17.70;46.10;;;;;;4941070;28;20176;-82
2022/12/24 00:04:45;;;;;;;1.30;1.00;;;17.70;46.20;;;;;;4925723;28;20180;-81
2022/12/24 00:07:12;;;;;;;1.08;0.90;;;17.60;46.10;;;;;;4941045;28;20168;-82
2022/12/24 00:09:38;;;;;;;1.42;0.93;;;17.70;46.20;;;;;;4941043;28;20168;-82
2022/12/24 00:12:04;;;;;;;1.10;0.90;;;17.70;46.20;;;;;;4925126;28;20176;-82
2022/12/24 00:14:29;;;;;;;0.98;0.85;;;17.70;46.20;;;;;;4925249;28;20599;-81
2022/12/24 00:16:55;;;;;;;1.00;0.90;;;17.70;46.20;;;;;;4925302;28;20169;-82
2022/12/24 00:19:21;;;;;;;1.08;0.98;;;17.60;46.20;;;;;;4940948;28;20639;-82
2022/12/24 00:21:46;;;;;;;1.00;0.82;;;17.70;46.30;;;;;;4940984;28;20156;-82
2022/12/24 00:24:12;;;;;;;1.20;0.80;;;17.60;46.30;;;;;;4941472;28;20264;-81
2022/12/24 00:26:37;;;;;;;0.98;0.88;;;17.60;46.30;;;;;;4940853;28;20586;-82
2022/12/24 00:29:03;;;;;;;0.90;0.90;;;17.60;46.40;;;;;;4940971;28;20196;-81
2022/12/24 00:31:29;;;;;;;1.42;0.95;;;17.60;46.30;;;;;;4942771;28;20153;-81
2022/12/24 00:33:54;;;;;;;1.10;1.00;;;17.60;46.20;;;;;;4944536;28;20161;-81
2022/12/24 00:36:20;;;;;;;1.08;0.95;;;17.70;46.30;;;;;;4960529;28;20204;-81
2022/12/24 00:38:46;;;;;;;1.08;0.95;;;17.60;46.40;;;;;;4944323;28;20576;-82
2022/12/24 00:41:28;;;;;;;1.30;1.20;;;17.60;46.40;;;;;;4928620;28;20176;-81
2022/12/24 00:43:55;;;;;;;0.85;0.82;;;17.60;46.30;;;;;;4932671;28;20584;-82
2022/12/24 00:46:23;;;;;;;1.40;1.20;;;17.60;46.40;;;;;;4944335;28;20164;-81
2022/12/24 00:48:50;;;;;;;1.30;1.20;;;17.60;46.50;;;;;;4928399;28;20179;-82
2022/12/24 00:51:19;;;;;;;0.98;0.88;;;17.60;46.50;;;;;;4960174;28;20156;-81
2022/12/24 00:53:44;;;;;;;0.82;0.80;;;17.60;46.60;;;;;;4977288;28;20157;-81
2022/12/24 00:56:10;;;;;;;1.85;1.00;;;17.60;46.50;;;;;;4928018;28;20259;-81
2022/12/24 00:58:36;;;;;;;1.00;0.90;;;17.60;46.60;;;;;;4928311;28;20211;-81
2022/12/24 01:01:05;;;;;;;1.23;0.88;;;17.60;46.60;;;;;;4944043;28;20169;-81
2022/12/24 01:03:34;;;;;;;0.93;0.80;;;17.60;46.60;;;;;;4936611;29;20646;-82
2022/12/24 01:06:01;;;;;;;0.80;0.80;;;17.60;46.60;;;;;;4906009;29;20197;-82
2022/12/24 01:08:26;;;;;;;1.10;1.00;;;17.60;46.50;;;;;;4920995;29;20233;-82
2022/12/24 01:10:52;;;;;;;1.35;1.23;;;17.60;46.60;;;;;;4921228;29;20170;-82
2022/12/24 01:13:18;;;;;;;1.00;0.90;;;17.60;46.60;;;;;;4911591;29;20186;-81
2022/12/24 01:15:43;;;;;;;1.00;0.90;;;17.50;46.60;;;;;;4910578;29;20320;-83
2022/12/24 01:18:09;;;;;;;1.15;0.90;;;17.60;46.60;;;;;;4927099;29;20624;-81
2022/12/24 01:20:34;;;;;;;0.80;0.80;;;17.50;46.70;;;;;;4911182;29;20585;-81
2022/12/24 01:23:00;;;;;;;1.00;0.90;;;17.50;46.70;;;;;;4921864;29;20178;-81
2022/12/24 01:25:26;;;;;;;1.20;1.02;;;17.50;46.70;;;;;;4920140;29;20541;-81
2022/12/24 01:27:52;;;;;;;0.90;0.90;;;17.50;46.70;;;;;;4904782;29;20166;-82
2022/12/24 01:30:18;;;;;;;1.23;1.02;;;17.50;46.70;;;;;;4920400;29;20197;-81
2022/12/24 01:32:44;;;;;;;1.42;0.85;;;17.50;46.80;;;;;;4904641;29;20237;-81
2022/12/24 01:35:11;;;;;;;1.50;1.10;;;17.50;46.80;;;;;;4935088;28;20216;-81
2022/12/24 01:37:37;;;;;;;1.65;1.02;;;17.50;46.80;;;;;;4943484;28;20615;-82
2022/12/24 01:45:41;;;;;;;1.05;0.90;;;17.50;46.80;;;;;;4946790;28;20160;-82
2022/12/24 01:48:39;;;;;;;1.08;0.98;;;17.50;46.80;;;;;;4942995;28;20251;-82
2022/12/24 01:51:27;;;;;;;1.45;0.90;;;17.50;46.80;;;;;;4976251;28;20161;-82
2022/12/24 01:53:57;;;;;;;1.10;1.00;;;17.50;46.90;;;;;;4932393;28;20547;-82
2022/12/24 01:56:24;;;;;;;1.02;0.93;;;17.50;46.90;;;;;;4943204;28;20288;-82
2022/12/24 01:58:53;;;;;;;1.00;0.85;;;17.50;47.60;;;;;;4943440;28;20170;-82
2022/12/24 02:01:19;;;;;;;0.82;0.80;;;17.50;46.90;;;;;;4927424;28;20168;-82
2022/12/24 02:03:44;;;;;;;1.38;1.00;;;17.50;46.90;;;;;;4926911;28;20545;-82
2022/12/24 02:06:11;;;;;;;1.00;0.90;;;17.50;46.90;;;;;;4942740;28;20192;-82
2022/12/24 02:08:40;;;;;;;1.10;1.00;;;17.50;46.90;;;;;;4958761;28;20239;-82
2022/12/24 02:11:14;;;;;;;0.90;0.80;;;17.50;46.90;;;;;;4943024;28;20259;-82
2022/12/24 02:13:42;;;;;;;1.27;0.90;;;17.50;47.00;;;;;;4942887;28;20164;-82
2022/12/24 02:16:15;;;;;;;0.70;0.70;;;17.50;47.00;;;;;;4942526;28;20180;-82
2022/12/24 02:19:15;;;;;;;1.42;1.10;;;17.50;47.00;;;;;;4942528;28;20169;-82
2022/12/24 02:22:06;;;;;;;0.93;0.80;;;17.50;46.90;;;;;;4931396;28;20749;-82
2022/12/24 02:24:49;;;;;;;1.05;0.80;;;17.50;46.90;;;;;;4958492;28;20161;-82
2022/12/24 02:27:49;;;;;;;1.10;1.00;;;17.50;46.80;;;;;;4943503;28;20227;-82
2022/12/24 02:30:20;;;;;;;1.20;0.88;;;17.50;46.90;;;;;;4945466;28;20183;-82
2022/12/24 02:33:04;;;;;;;0.90;0.82;;;17.50;46.80;;;;;;4926793;28;20547;-82
2022/12/24 02:35:45;;;;;;;1.08;1.00;;;17.50;46.90;;;;;;4927909;28;20200;-82
2022/12/24 02:38:15;;;;;;;1.35;1.08;;;17.50;47.60;;;;;;4943974;28;20157;-82
2022/12/24 02:40:48;;;;;;;0.93;0.90;;;17.40;46.80;;;;;;4926579;28;20267;-82
2022/12/24 02:43:17;;;;;;;1.55;0.85;;;17.50;47.00;;;;;;4926757;28;20165;-82
2022/12/24 02:45:45;;;;;;;0.80;0.80;;;17.40;46.90;;;;;;4919756;28;20263;-82
2022/12/24 02:48:11;;;;;;;1.10;1.00;;;17.50;47.00;;;;;;4926322;28;20263;-82
2022/12/24 02:50:37;;;;;;;1.00;0.90;;;17.50;47.00;;;;;;4941910;28;20203;-82
2022/12/24 02:53:04;;;;;;;1.20;0.95;;;17.40;46.80;;;;;;4957940;28;20189;-82
2022/12/24 02:55:59;;;;;;;1.27;1.00;;;17.50;47.00;;;;;;4942046;28;20726;-82
2022/12/24 02:58:47;;;;;;;1.00;0.88;;;17.50;47.00;;;;;;4975150;28;20169;-82
2022/12/24 03:01:39;;;;;;;1.00;0.80;;;17.50;47.10;;;;;;4927046;28;20173;-82
2022/12/24 03:04:38;;;;;;;1.08;0.98;;;17.50;47.10;;;;;;4960065;28;20180;-82
2022/12/24 03:07:23;;;;;;;1.17;1.00;;;17.50;47.20;;;;;;4947457;28;20149;-82
2022/12/24 03:10:02;;;;;;;1.30;0.85;;;17.40;47.20;;;;;;4958093;28;20153;-82
2022/12/24 03:12:34;;;;;;;1.23;0.95;;;17.40;47.00;;;;;;4941870;28;20169;-82
2022/12/24 03:15:00;;;;;;;1.00;0.90;;;17.40;47.00;;;;;;4938685;29;20264;-82
2022/12/24 03:17:26;;;;;;;1.40;0.98;;;17.50;47.20;;;;;;4939905;28;20249;-82
2022/12/24 03:19:52;;;;;;;1.30;0.93;;;17.50;47.10;;;;;;4941840;28;20539;-82
2022/12/24 03:22:18;;;;;;;1.17;0.90;;;17.40;47.10;;;;;;4941610;28;20154;-82
2022/12/24 03:24:44;;;;;;;1.00;0.90;;;17.40;47.10;;;;;;4925699;28;20223;-82
2022/12/24 03:27:10;;;;;;;1.10;1.00;;;17.40;47.10;;;;;;4925466;28;20220;-82
2022/12/24 03:29:38;;;;;;;0.85;0.80;;;17.40;47.10;;;;;;4925630;28;20198;-82
2022/12/24 03:32:05;;;;;;;0.77;0.70;;;17.40;47.10;;;;;;4926024;28;20169;-82
2022/12/24 03:34:30;;;;;;;0.90;0.90;;;17.40;47.10;;;;;;4941594;28;20208;-82
2022/12/24 03:36:56;;;;;;;1.20;0.80;;;17.40;47.10;;;;;;4957300;28;20165;-82
2022/12/24 03:39:22;;;;;;;0.95;0.80;;;17.40;47.10;;;;;;4925526;28;20165;-82
2022/12/24 03:41:48;;;;;;;2.03;1.00;;;17.40;47.20;;;;;;4941275;28;20160;-82
2022/12/24 03:44:13;;;;;;;1.15;1.00;;;17.40;47.20;;;;;;4941346;28;20159;-82
2022/12/24 03:46:40;;;;;;;1.10;0.90;;;17.40;47.20;;;;;;4925503;28;20177;-82
2022/12/24 03:49:06;;;;;;;1.02;0.93;;;17.40;47.10;;;;;;4941289;28;20161;-82
2022/12/24 03:51:32;;;;;;;1.30;1.17;;;17.40;47.10;;;;;;4941283;28;20300;-82
2022/12/24 03:53:58;;;;;;;1.48;0.95;;;17.40;47.20;;;;;;4941438;28;20191;-82
2022/12/24 03:56:23;;;;;;;0.88;0.80;;;17.40;47.90;;;;;;4925361;28;20216;-82
2022/12/24 03:58:49;;;;;;;1.20;0.90;;;17.50;47.30;;;;;;4925333;28;20172;-81
2022/12/24 04:01:15;;;;;;;1.17;0.98;;;17.40;47.10;;;;;;4941185;28;20203;-82
2022/12/24 04:03:41;;;;;;;1.10;1.00;;;17.40;47.30;;;;;;4941529;28;20253;-82
2022/12/24 04:06:09;;;;;;;0.90;0.90;;;17.40;47.30;;;;;;4926634;28;20209;-81
2022/12/24 04:08:35;;;;;;;1.35;0.80;;;17.40;47.20;;;;;;4929343;28;20180;-82
2022/12/24 04:11:04;;;;;;;0.95;0.90;;;17.40;47.20;;;;;;4929598;28;20263;-82
2022/12/24 04:13:30;;;;;;;1.00;0.90;;;17.40;47.30;;;;;;4960738;28;20157;-82
2022/12/24 04:16:04;;;;;;;1.05;0.90;;;17.40;47.30;;;;;;4928748;28;20211;-83
2022/12/24 04:18:30;;;;;;;1.25;0.90;;;17.40;47.30;;;;;;4929110;28;20172;-82
2022/12/24 04:20:57;;;;;;;0.98;0.80;;;17.40;47.30;;;;;;4944973;28;20564;-82
2022/12/24 04:23:23;;;;;;;1.40;1.05;;;17.40;47.30;;;;;;4960784;28;20191;-82
2022/12/24 04:25:48;;;;;;;1.00;0.90;;;17.40;47.30;;;;;;4944533;28;20251;-82
2022/12/24 04:28:14;;;;;;;0.73;0.70;;;17.40;47.40;;;;;;4944537;28;20159;-82
2022/12/24 04:30:40;;;;;;;1.35;1.05;;;17.40;47.30;;;;;;4944675;28;20612;-82
2022/12/24 04:33:06;;;;;;;1.40;1.10;;;17.40;47.40;;;;;;4944543;28;20165;-82
2022/12/24 04:35:33;;;;;;;1.23;0.75;;;17.30;47.30;;;;;;4944431;28;21252;-82
2022/12/24 04:37:58;;;;;;;1.15;1.05;;;17.30;47.30;;;;;;4944556;28;20165;-82
2022/12/24 04:40:24;;;;;;;1.00;0.90;;;17.30;47.40;;;;;;4960325;28;20176;-82
2022/12/24 04:42:50;;;;;;;0.60;0.60;;;17.30;47.50;;;;;;4944318;28;20228;-82
2022/12/24 04:45:17;;;;;;;0.90;0.70;;;17.30;47.50;;;;;;4960313;28;20329;-82
2022/12/24 04:47:43;;;;;;;1.00;0.77;;;17.30;47.40;;;;;;4928444;28;20173;-82
2022/12/24 04:50:12;;;;;;;0.93;0.73;;;17.40;47.50;;;;;;4944236;28;20157;-82
2022/12/24 04:52:38;;;;;;;0.80;0.80;;;17.30;47.40;;;;;;4960181;28;20165;-82
2022/12/24 04:55:04;;;;;;;0.85;0.80;;;17.30;47.40;;;;;;4960053;28;20541;-82
2022/12/24 04:57:32;;;;;;;0.75;0.70;;;17.20;47.40;;;;;;4944477;28;20169;-82
2022/12/24 04:59:59;;;;;;;1.00;0.70;;;17.30;47.40;;;;;;4960209;28;20236;-82
2022/12/24 05:02:24;;;;;;;0.95;0.70;;;17.30;47.40;;;;;;4943859;28;20168;-82
2022/12/24 05:04:50;;;;;;;0.80;0.80;;;17.30;47.40;;;;;;4977278;28;20244;-82
2022/12/24 05:07:16;;;;;;;1.10;1.00;;;17.30;47.40;;;;;;4959890;28;20157;-82
2022/12/24 05:09:41;;;;;;;1.50;0.93;;;17.30;47.40;;;;;;4943901;28;20161;-83
2022/12/24 05:12:07;;;;;;;1.00;0.90;;;17.30;47.40;;;;;;4959762;28;20240;-82
2022/12/24 05:14:33;;;;;;;1.02;0.93;;;17.40;47.40;;;;;;4959717;28;20188;-82
2022/12/24 05:16:58;;;;;;;1.10;0.88;;;17.30;47.40;;;;;;4976129;28;20211;-82
2022/12/24 05:19:24;;;;;;;1.40;1.00;;;17.30;47.40;;;;;;4959346;28;20188;-82
2022/12/24 05:26:20;;;;;;;1.00;0.80;;;17.30;47.30;;;;;;4959663;28;20157;-82
2022/12/24 05:27:14;;;;;;;0.88;0.82;;;17.30;47.50;;;;;;4947250;28;20228;-82
2022/12/24 05:29:40;;;;;;;1.10;0.90;;;17.30;47.50;;;;;;4943400;28;20161;-82
2022/12/24 05:32:07;;;;;;;1.13;0.80;;;17.30;47.40;;;;;;4959471;28;20842;-82
2022/12/24 05:34:32;;;;;;;1.33;0.88;;;17.30;47.50;;;;;;4943461;28;20161;-82
2022/12/24 05:36:59;;;;;;;1.00;0.70;;;17.30;47.40;;;;;;4943295;28;20529;-82
2022/12/24 05:39:25;;;;;;;0.80;0.80;;;17.30;47.50;;;;;;4927808;28;20256;-82
2022/12/24 05:41:51;;;;;;;1.77;0.80;;;17.30;47.50;;;;;;4943236;28;20695;-82
2022/12/24 05:44:17;;;;;;;0.90;0.80;;;17.30;47.50;;;;;;4959222;28;20184;-82
2022/12/24 05:46:43;;;;;;;0.80;0.80;;;17.30;47.50;;;;;;4976560;28;20616;-82
2022/12/24 05:49:08;;;;;;;0.90;0.75;;;17.20;47.50;;;;;;4927267;28;20220;-82
2022/12/24 05:51:34;;;;;;;1.52;1.08;;;17.20;47.50;;;;;;4959199;28;20169;-82
2022/12/24 05:53:59;;;;;;;1.00;0.90;;;17.30;47.50;;;;;;4942951;28;20232;-82
2022/12/24 05:56:25;;;;;;;1.20;0.90;;;17.30;47.40;;;;;;4958880;28;20180;-82
2022/12/24 05:58:54;;;;;;;0.80;0.80;;;17.30;47.50;;;;;;4943029;28;20160;-83
2022/12/24 06:01:21;;;;;;;0.70;0.70;;;17.30;47.40;;;;;;4942839;28;20215;-82
2022/12/24 06:03:48;;;;;;;1.48;1.00;;;17.30;47.40;;;;;;4927093;28;20164;-82
2022/12/24 06:06:18;;;;;;;0.80;0.80;;;17.30;47.40;;;;;;4927542;28;20161;-82
2022/12/24 06:08:43;;;;;;;1.05;0.82;;;17.30;47.40;;;;;;4927769;28;20164;-82
2022/12/24 06:11:10;;;;;;;1.08;0.80;;;17.30;47.40;;;;;;4958808;28;20244;-82
2022/12/24 06:13:36;;;;;;;1.35;0.98;;;17.30;47.50;;;;;;4942865;28;20157;-83
2022/12/24 06:16:03;;;;;;;1.10;1.00;;;17.30;47.40;;;;;;4958440;28;20656;-82
2022/12/24 06:18:30;;;;;;;1.40;0.90;;;17.30;47.50;;;;;;4927092;28;20169;-82
2022/12/24 06:20:56;;;;;;;1.00;0.90;;;17.30;47.50;;;;;;4942853;28;20612;-82
2022/12/24 06:23:23;;;;;;;0.98;0.80;;;17.30;47.50;;;;;;4926729;28;20176;-82
2022/12/24 06:25:48;;;;;;;0.75;0.73;;;17.30;47.50;;;;;;4942148;28;20315;-82
2022/12/24 06:28:14;;;;;;;0.80;0.80;;;17.30;47.50;;;;;;4957977;28;20682;-82
2022/12/24 06:30:44;;;;;;;1.00;0.80;;;17.20;47.50;;;;;;4926491;28;20199;-82
2022/12/24 06:33:10;;;;;;;0.70;0.68;;;17.30;47.50;;;;;;4942893;28;20156;-82
2022/12/24 06:35:35;;;;;;;1.38;0.90;;;17.30;47.50;;;;;;4958109;28;20196;-82
2022/12/24 06:38:01;;;;;;;1.25;1.00;;;17.30;47.50;;;;;;4926934;28;20183;-82
2022/12/24 06:40:27;;;;;;;2.22;1.20;;;17.30;47.50;;;;;;4942250;28;20205;-82
2022/12/24 06:42:52;;;;;;;0.80;0.80;;;17.30;47.50;;;;;;4942192;28;20149;-82
2022/12/24 06:45:18;;;;;;;1.02;0.90;;;17.30;47.50;;;;;;4926221;28;20176;-81
2022/12/24 06:47:44;;;;;;;1.20;1.10;;;17.30;47.50;;;;;;4942113;28;20543;-82
2022/12/24 06:50:09;;;;;;;0.90;0.70;;;17.30;47.50;;;;;;4942557;28;20161;-82
2022/12/24 06:52:35;;;;;;;1.00;0.75;;;17.30;47.50;;;;;;4942071;28;20573;-82
2022/12/24 06:55:01;;;;;;;0.73;0.70;;;17.30;47.50;;;;;;4942049;28;20331;-82
2022/12/24 06:57:30;;;;;;;1.45;0.90;;;17.20;47.50;;;;;;4926647;28;20164;-82
2022/12/24 06:59:56;;;;;;;0.85;0.80;;;17.30;47.50;;;;;;4942410;28;20157;-81
2022/12/24 07:02:24;;;;;;;0.80;0.80;;;17.30;47.50;;;;;;4957723;28;20207;-82
2022/12/24 07:04:50;;;;;;;0.93;0.90;;;17.30;47.50;;;;;;4974971;28;20157;-82
2022/12/24 07:07:17;;;;;;;0.80;0.80;;;17.20;47.50;;;;;;4941779;28;20156;-82
2022/12/24 07:09:43;;;;;;;0.80;0.80;;;17.30;47.50;;;;;;4941694;28;20255;-83
2022/12/24 07:12:08;;;;;;;0.80;0.80;;;17.20;47.40;;;;;;4925795;28;20312;-82
2022/12/24 07:14:34;;;;;;;0.90;0.80;;;17.30;47.50;;;;;;4941505;28;20164;-82
2022/12/24 07:17:00;;;;;;;0.90;0.80;;;17.20;47.50;;;;;;4941549;28;20188;-82
2022/12/24 07:19:25;;;;;;;0.80;0.80;;;17.20;47.50;;;;;;4957651;28;20157;-81
2022/12/24 07:21:51;;;;;;;0.77;0.77;;;17.20;47.60;;;;;;4926243;28;20499;-82
2022/12/24 07:24:17;;;;;;;1.10;1.00;;;17.30;47.60;;;;;;4926278;28;20168;-81
2022/12/24 07:26:42;;;;;;;1.00;0.90;;;17.20;47.50;;;;;;4958934;28;20213;-81
2022/12/24 07:29:08;;;;;;;0.88;0.88;;;17.30;47.50;;;;;;4963824;28;20172;-82
2022/12/24 07:31:34;;;;;;;0.80;0.80;;;17.30;47.50;;;;;;4948421;28;20240;-81
2022/12/24 07:34:00;;;;;;;0.98;0.82;;;17.30;47.50;;;;;;4963722;28;20185;-81
2022/12/24 07:36:27;;;;;;;1.10;0.90;;;17.20;47.50;;;;;;4932369;28;20220;-81
2022/12/24 07:38:53;;;;;;;0.93;0.70;;;17.30;47.50;;;;;;4941921;28;20165;-82
2022/12/24 07:41:18;;;;;;;1.00;0.90;;;17.20;47.50;;;;;;4940726;28;20208;-82
2022/12/24 07:43:44;;;;;;;0.73;0.73;;;17.30;47.50;;;;;;4941427;28;20156;-82
2022/12/24 07:46:12;;;;;;;0.98;0.80;;;17.20;47.50;;;;;;4957242;28;20168;-82
2022/12/24 07:48:37;;;;;;;1.10;1.00;;;17.30;47.50;;;;;;4941321;28;20157;-82
2022/12/24 07:51:04;;;;;;;1.00;0.90;;;17.30;48.20;;;;;;4925317;28;20161;-82
2022/12/24 07:53:30;;;;;;;0.80;0.80;;;17.30;47.50;;;;;;4925317;28;20169;-82
2022/12/24 07:55:56;;;;;;;1.40;0.85;;;17.30;47.50;;;;;;4925503;28;20208;-82
2022/12/24 07:58:22;;;;;;;0.90;0.75;;;17.20;47.50;;;;;;4925400;28;20164;-81
2022/12/24 08:00:47;;;;;;;0.70;0.70;;;17.20;47.50;;;;;;4941063;28;20527;-82
2022/12/24 08:03:16;;;;;;;0.93;0.88;;;17.20;47.60;;;;;;4957125;28;20260;-82
2022/12/24 08:05:42;;;;;;;0.80;0.70;;;17.20;47.60;;;;;;4925692;28;20194;-81
2022/12/24 08:08:07;;;;;;;0.80;0.70;;;17.20;47.60;;;;;;4941344;28;20579;-82
2022/12/24 08:10:33;;;;;;;1.35;1.00;;;17.20;47.50;;;;;;4941021;28;20540;-82
2022/12/24 08:12:59;;;;;;;1.40;0.90;;;17.30;47.50;;;;;;4941064;28;20600;-82
2022/12/24 08:15:24;;;;;;;1.02;0.90;;;17.20;47.50;;;;;;4925810;28;20202;-82
2022/12/24 08:17:50;;;;;;;1.20;0.90;;;17.20;47.50;;;;;;4957099;28;20234;-82
2022/12/24 08:20:16;;;;;;;1.13;0.70;;;17.20;48.20;;;;;;4941069;28;20257;-82
2022/12/24 08:22:42;;;;;;;0.80;0.80;;;17.20;48.30;;;;;;4925888;28;20169;-82
2022/12/24 08:25:09;;;;;;;0.82;0.80;;;17.20;47.60;;;;;;4941249;28;20232;-82
2022/12/24 08:27:36;;;;;;;0.90;0.85;;;17.20;47.50;;;;;;4957052;28;20224;-82
2022/12/24 08:30:03;;;;;;;1.55;1.08;;;17.20;47.40;;;;;;4940942;28;20183;-82
2022/12/24 08:32:29;;;;;;;1.02;0.90;;;17.30;47.00;;;;;;4925630;28;20181;-82
2022/12/24 08:34:57;;;;;;;1.33;0.98;;;17.40;46.90;;;;;;4924951;28;20188;-82
2022/12/24 08:37:23;;;;;;;0.77;0.77;;;17.40;46.70;;;;;;4925203;28;20172;-82
2022/12/24 08:39:50;;;;;;;1.05;0.95;;;17.40;46.70;;;;;;4940919;28;20176;-82
2022/12/24 08:42:16;;;;;;;0.93;0.90;;;17.50;46.30;;;;;;4925046;28;20173;-82
2022/12/24 08:44:41;;;;;;;1.77;1.17;;;17.50;46.00;;;;;;4940949;28;20172;-82
2022/12/24 08:47:07;;;;;;;1.38;0.93;;;17.60;46.20;;;;;;4941090;28;20247;-82
2022/12/24 08:49:32;;;;;;;1.17;0.93;;;17.60;46.10;;;;;;4940877;28;20164;-82
2022/12/24 08:51:59;;;;;;;1.30;1.10;;;17.60;46.30;;;;;;4941934;28;20528;-82
2022/12/24 08:54:25;;;;;;;1.15;0.90;;;17.60;46.20;;;;;;4944246;28;20165;-82
2022/12/24 08:56:51;;;;;;;1.10;1.00;;;17.60;45.90;;;;;;4944202;28;20196;-82
2022/12/24 08:59:16;;;;;;;1.13;1.00;;;17.60;46.10;;;;;;4960221;28;20153;-81
2022/12/24 09:01:43;;;;;;;1.20;1.10;;;17.60;45.80;;;;;;4928566;28;20179;-81
2022/12/24 09:04:09;;;;;;;1.10;1.00;;;17.70;45.90;;;;;;4928327;28;20215;-81
2022/12/24 09:06:35;;;;;;;1.20;1.10;;;17.70;45.70;;;;;;4944392;28;20200;-83
2022/12/24 09:09:01;;;;;;;1.13;1.00;;;17.70;45.50;;;;;;4977221;28;20495;-82
2022/12/24 09:11:27;;;;;;;1.35;1.08;;;17.70;45.50;;;;;;4959743;28;20177;-82
2022/12/24 09:13:53;;;;;;;1.40;1.25;;;17.70;45.70;;;;;;4959987;28;20164;-82
2022/12/24 09:16:19;;;;;;;1.20;1.10;;;17.70;45.40;;;;;;4960136;28;20188;-82
2022/12/24 09:18:46;;;;;;;1.40;1.00;;;17.70;45.50;;;;;;4943875;28;20157;-83
2022/12/24 09:21:13;;;;;;;0.95;0.88;;;17.70;45.40;;;;;;4944100;28;20175;-82
2022/12/24 09:23:42;;;;;;;1.33;1.20;;;17.70;45.50;;;;;;4959772;28;20164;-82
2022/12/24 09:26:13;;;;;;;0.80;0.80;;;17.70;45.30;;;;;;4944241;28;20679;-82
2022/12/24 09:28:39;;;;;;;1.20;1.10;;;17.70;45.70;;;;;;4945062;28;20651;-83
2022/12/24 09:31:05;;;;;;;1.60;1.50;;;17.70;45.50;;;;;;4944734;28;20247;-83
2022/12/24 09:33:34;;;;;;;1.00;0.90;;;17.70;45.40;;;;;;4959786;28;20241;-82
2022/12/24 09:36:00;;;;;;;1.45;1.00;;;17.70;45.60;;;;;;4960120;28;20184;-83
2022/12/24 09:38:27;;;;;;;1.17;1.08;;;17.70;45.50;;;;;;4977026;28;20215;-82
2022/12/24 09:40:53;;;;;;;1.30;1.20;;;17.70;45.60;;;;;;4960224;28;20157;-82
2022/12/24 09:43:22;;;;;;;1.23;0.80;;;17.70;45.50;;;;;;4959692;28;20240;-82
2022/12/24 09:46:09;;;;;;;1.13;1.00;;;17.70;45.70;;;;;;4943667;28;20176;-82
2022/12/24 09:48:38;;;;;;;1.10;1.00;;;17.70;45.80;;;;;;4949179;28;20169;-81
2022/12/24 09:51:09;;;;;;;1.45;1.27;;;17.70;45.70;;;;;;4927831;28;20329;-82
2022/12/24 09:53:58;;;;;;;1.20;1.00;;;17.80;45.50;;;;;;4927329;28;20219;-82
2022/12/24 09:56:26;;;;;;;1.23;0.90;;;17.80;45.50;;;;;;4944953;28;20726;-82
2022/12/24 09:59:13;;;;;;;1.38;0.93;;;17.80;45.40;;;;;;4927337;28;20220;-82
2022/12/24 10:01:39;;;;;;;1.42;1.30;;;17.80;45.60;;;;;;4943504;28;20187;-82
2022/12/24 10:04:12;;;;;;;0.80;0.80;;;17.80;45.40;;;;;;4958239;28;20176;-82
2022/12/24 10:06:58;;;;;;;1.23;1.08;;;17.80;45.50;;;;;;4943104;28;20528;-82
2022/12/24 10:09:36;;;;;;;1.65;1.10;;;17.80;45.40;;;;;;4960719;28;20165;-82
2022/12/24 10:12:18;;;;;;;0.80;0.80;;;17.80;45.20;;;;;;4943166;28;20518;-82
2022/12/24 10:15:02;;;;;;;0.93;0.90;;;17.80;45.60;;;;;;4943909;28;20164;-82
2022/12/24 10:17:48;;;;;;;1.20;0.93;;;17.80;45.40;;;;;;4958605;28;20243;-82
2022/12/24 10:20:44;;;;;;;1.17;0.98;;;17.80;45.10;;;;;;4959717;28;20496;-82
2022/12/24 10:23:47;;;;;;;1.25;1.00;;;17.80;45.40;;;;;;4958553;28;20204;-81
2022/12/24 10:26:22;;;;;;;1.13;1.02;;;17.80;45.20;;;;;;4947775;28;20220;-83
2022/12/24 10:28:58;;;;;;;1.25;1.15;;;17.80;45.00;;;;;;4943232;28;20156;-82
2022/12/24 10:31:26;;;;;;;1.00;0.90;;;17.80;44.80;;;;;;4943581;28;20619;-82
2022/12/24 10:33:59;;;;;;;1.05;0.90;;;17.80;45.30;;;;;;4958457;28;20161;-82
2022/12/24 10:36:27;;;;;;;1.10;1.00;;;17.80;45.30;;;;;;4942857;28;20199;-82
2022/12/24 10:38:53;;;;;;;1.20;1.10;;;17.80;45.00;;;;;;4942524;28;20160;-82
2022/12/24 10:41:19;;;;;;;1.10;1.00;;;17.90;45.20;;;;;;4926228;28;20267;-83
2022/12/24 10:43:45;;;;;;;1.00;0.90;;;17.80;45.50;;;;;;4958114;28;20199;-82
2022/12/24 10:46:17;;;;;;;1.38;0.98;;;17.80;45.30;;;;;;4941994;28;20161;-82
2022/12/24 10:48:47;;;;;;;1.17;0.90;;;17.80;45.10;;;;;;4942538;28;20684;-83
2022/12/24 10:51:19;;;;;;;1.10;0.93;;;17.70;45.10;;;;;;4942500;28;20157;-81
2022/12/24 10:53:48;;;;;;;1.02;0.93;;;17.80;45.10;;;;;;4942389;28;20157;-82
2022/12/24 10:56:15;;;;;;;0.98;0.85;;;17.90;45.00;;;;;;4958237;28;20205;-82
2022/12/24 10:58:43;;;;;;;1.10;1.00;;;17.90;45.10;;;;;;4975232;28;20240;-82
2022/12/24 11:01:09;;;;;;;1.13;1.02;;;17.90;44.60;;;;;;4942101;28;20160;-82
2022/12/24 11:03:37;;;;;;;1.08;0.98;;;17.90;44.80;;;;;;4941849;28;20153;-82
2022/12/24 11:06:07;;;;;;;1.77;0.82;;;17.90;44.90;;;;;;4942350;28;20611;-82
2022/12/24 11:08:33;;;;;;;1.10;0.85;;;17.90;44.90;;;;;;4926308;28;20172;-82
2022/12/24 11:11:01;;;;;;;1.20;0.93;;;17.90;44.90;;;;;;4957865;28;20165;-82
2022/12/24 11:13:35;;;;;;;1.10;0.98;;;17.90;45.10;;;;;;4925949;28;20175;-82
2022/12/24 11:16:19;;;;;;;0.80;0.70;;;17.80;45.00;;;;;;4925280;28;20208;-82
2022/12/24 11:18:49;;;;;;;1.00;0.90;;;17.90;44.90;;;;;;4944084;28;20654;-82
2022/12/24 11:21:31;;;;;;;1.00;0.90;;;17.90;45.00;;;;;;4941654;28;20157;-82
2022/12/24 11:24:06;;;;;;;0.90;0.80;;;17.80;44.70;;;;;;4941466;28;20180;-83
2022/12/24 11:26:32;;;;;;;1.35;1.02;;;17.90;44.80;;;;;;4942430;28;20219;-81
2022/12/24 11:29:20;;;;;;;0.90;0.80;;;17.90;45.00;;;;;;4957423;28;20518;-81
2022/12/24 11:31:46;;;;;;;1.20;0.95;;;17.90;45.10;;;;;;4960586;28;20179;-81
2022/12/24 11:34:29;;;;;;;0.80;0.80;;;17.90;44.80;;;;;;4941664;28;20165;-81
2022/12/24 11:37:13;;;;;;;0.73;0.73;;;17.90;44.70;;;;;;4926879;28;20243;-81
2022/12/24 11:39:40;;;;;;;0.70;0.70;;;17.90;44.80;;;;;;4942316;28;20153;-81
2022/12/24 11:42:06;;;;;;;0.85;0.85;;;17.90;44.80;;;;;;4941362;28;20236;-81
2022/12/24 11:44:32;;;;;;;0.80;0.80;;;17.80;44.60;;;;;;4925524;28;20200;-81
2022/12/24 11:46:57;;;;;;;1.10;0.90;;;17.90;44.70;;;;;;4957130;28;20180;-81
2022/12/24 11:49:26;;;;;;;1.40;0.93;;;17.90;44.80;;;;;;4957219;28;20526;-82
2022/12/24 11:52:18;;;;;;;1.45;1.00;;;17.90;44.90;;;;;;4941634;28;20208;-81
2022/12/24 11:54:51;;;;;;;1.10;0.80;;;17.90;44.60;;;;;;4943185;28;20183;-82
2022/12/24 11:57:17;;;;;;;0.88;0.80;;;17.90;44.70;;;;;;4957515;28;20317;-81
2022/12/24 11:59:45;;;;;;;0.90;0.85;;;17.90;44.80;;;;;;4974618;28;20153;-81
2022/12/24 12:02:22;;;;;;;1.00;1.00;;;17.90;44.50;;;;;;4957332;28;20176;-81
2022/12/24 12:04:54;;;;;;;0.77;0.68;;;18.00;44.60;;;;;;4941574;28;20628;-81
2022/12/24 12:07:24;;;;;;;0.65;0.60;;;17.90;44.60;;;;;;4957777;28;20161;-81
2022/12/24 12:09:57;;;;;;;1.00;0.80;;;17.90;44.80;;;;;;4941303;28;20153;-81
2022/12/24 12:12:27;;;;;;;1.25;0.95;;;17.90;44.90;;;;;;4941916;28;20154;-82
2022/12/24 12:14:57;;;;;;;0.80;0.80;;;17.90;44.60;;;;;;4941201;28;20569;-82
2022/12/24 12:17:52;;;;;;;0.73;0.68;;;17.90;44.50;;;;;;4941458;28;20675;-82
2022/12/24 12:20:28;;;;;;;0.60;0.60;;;17.90;44.60;;;;;;4930416;28;20239;-82
2022/12/24 12:22:58;;;;;;;0.95;0.80;;;17.90;44.70;;;;;;4956977;28;20208;-82
2022/12/24 12:25:44;;;;;;;0.60;0.60;;;17.80;44.80;;;;;;4925222;28;20512;-82
2022/12/24 12:28:17;;;;;;;0.80;0.80;;;17.90;44.90;;;;;;4944156;28;20651;-82
2022/12/24 12:30:43;;;;;;;0.98;0.70;;;17.90;44.80;;;;;;4944908;28;20168;-84
2022/12/24 12:33:30;;;;;;;0.70;0.70;;;17.90;44.40;;;;;;4977839;28;20217;-81
2022/12/24 12:35:56;;;;;;;0.95;0.88;;;17.90;44.20;;;;;;4929475;28;20204;-81
2022/12/24 12:38:23;;;;;;;0.70;0.65;;;17.90;44.30;;;;;;4944323;28;20169;-81
2022/12/24 12:41:12;;;;;;;0.85;0.82;;;17.90;44.40;;;;;;4960610;28;20204;-81
2022/12/24 12:44:02;;;;;;;0.90;0.88;;;17.90;44.50;;;;;;4960379;28;20164;-81
2022/12/24 12:47:00;;;;;;;1.00;0.90;;;17.90;44.30;;;;;;4947572;28;20212;-81
2022/12/24 12:49:36;;;;;;;0.70;0.60;;;17.90;44.40;;;;;;4932404;28;20169;-81
2022/12/24 12:52:08;;;;;;;0.75;0.75;;;17.90;44.60;;;;;;4977338;28;20243;-81
2022/12/24 12:54:46;;;;;;;0.85;0.85;;;17.90;44.70;;;;;;4944731;28;20572;-82
2022/12/24 12:57:13;;;;;;;0.85;0.75;;;17.90;44.50;;;;;;4929101;28;20260;-82
2022/12/24 12:59:50;;;;;;;0.80;0.80;;;17.90;44.60;;;;;;4928208;28;20163;-81
2022/12/24 13:02:47;;;;;;;0.90;0.90;;;17.90;44.30;;;;;;4929436;28;20542;-82
2022/12/24 13:05:47;;;;;;;0.90;0.82;;;17.90;44.40;;;;;;4946199;28;20607;-83
2022/12/24 13:08:46;;;;;;;0.68;0.60;;;17.90;44.20;;;;;;4960020;28;20161;-83
2022/12/24 13:11:27;;;;;;;0.70;0.70;;;17.90;44.50;;;;;;4933634;28;20220;-82